Time;durP1;ratioP1;P1;durP2;ratioP2;P2;SDS_P1;SDS_P2;PMS_P1;PMS_P2;Temp;Humidity;BMP_temperature;BMP_pressure;BME280_temperature;BME280_humidity;BME280_pressure;Samples;Min_cycle;Max_cycle;Signal;HPM_P1;HPM_P2
2023/05/01 00:01:19;;;;;;;;;16.67;14.67;;;;;-147.17;100.00;-7235.84;4952097;28;65913;-41
2023/05/01 00:03:44;;;;;;;;;19.25;18.75;;;;;-147.17;100.00;-7235.84;4952452;28;56942;-42
2023/05/01 00:06:09;;;;;;;;;21.75;19.50;;;;;-147.17;100.00;-7235.84;4952557;28;51484;-42
2023/05/01 00:08:35;;;;;;;;;19.75;18.00;;;;;-147.17;100.00;-7235.84;4952653;28;51088;-42
2023/05/01 00:11:04;;;;;;;;;19.75;19.00;;;;;-147.17;100.00;-7235.84;4952117;28;52735;-42
2023/05/01 00:13:30;;;;;;;;;19.50;17.75;;;;;-147.17;100.00;-7235.84;4934519;28;50835;-42
2023/05/01 00:15:55;;;;;;;;;20.00;18.50;;;;;-147.17;100.00;-7235.84;4952319;28;51287;-42
2023/05/01 00:18:20;;;;;;;;;21.67;18.33;;;;;-147.17;100.00;-7235.84;4952809;28;51048;-42
2023/05/01 00:20:46;;;;;;;;;18.00;18.00;;;;;-147.17;100.00;-7235.84;4961991;28;51853;-42
2023/05/01 00:23:11;;;;;;;;;18.50;18.00;;;;;-147.17;100.00;-7235.84;4951982;28;51239;-42
2023/05/01 00:25:38;;;;;;;;;23.75;21.50;;;;;-147.17;100.00;-7235.84;4922703;28;51094;-42
2023/05/01 00:28:04;;;;;;;;;18.75;18.00;;;;;-147.17;100.00;-6987.56;4952456;28;51132;-42
2023/05/01 00:30:32;;;;;;;;;18.50;18.50;;;;;-147.17;100.00;-6987.56;4951819;28;53000;-42
2023/05/01 00:32:58;;;;;;;;;19.25;18.50;;;;;-147.17;100.00;-6987.56;4952025;28;51034;-42
2023/05/01 00:35:23;;;;;;;;;18.25;18.25;;;;;-147.17;100.00;-6987.56;4951799;28;51396;-41
2023/05/01 00:37:49;;;;;;;;;18.75;17.25;;;;;-147.17;100.00;-6987.56;4952152;28;51107;-41
2023/05/01 00:40:14;;;;;;;;;20.67;19.33;;;;;-147.17;100.00;-6987.56;4951655;28;54716;-42
2023/05/01 00:42:39;;;;;;;;;18.75;18.50;;;;;-147.17;100.00;-6987.56;4952081;28;51012;-42
2023/05/01 00:45:06;;;;;;;;;19.25;18.75;;;;;-147.17;100.00;-6987.56;4951573;28;51031;-41
2023/05/01 00:47:34;;;;;;;;;18.25;17.25;;;;;-147.17;100.00;-6987.56;4934647;28;51018;-42
2023/05/01 00:49:59;;;;;;;;;15.50;15.25;;;;;-147.17;100.00;-6987.56;4951482;28;50973;-42
2023/05/01 00:52:25;;;;;;;;;13.75;13.75;;;;;-147.17;100.00;-6987.56;4951886;28;51006;-42
2023/05/01 00:54:51;;;;;;;;;19.50;19.25;;;;;-147.17;100.00;-6987.56;4933977;28;51130;-42
2023/05/01 00:57:20;;;;;;;;;20.00;18.00;;;;;-147.17;100.00;-6987.56;4951035;28;51149;-42
2023/05/01 00:59:46;;;;;;;;;20.50;20.50;;;;;-147.17;100.00;-6987.56;4951533;28;52184;-42
2023/05/01 01:02:12;;;;;;;;;18.75;17.75;;;;;-147.17;100.00;-6987.56;4952167;28;51299;-42
2023/05/01 01:04:41;;;;;;;;;15.50;14.50;;;;;-147.17;100.00;-7235.84;4951636;28;51098;-42
2023/05/01 01:07:20;;;;;;;;;18.75;18.25;;;;;-147.17;100.00;-7235.84;4951631;28;51450;-42
2023/05/01 01:09:54;;;;;;;;;21.25;20.25;;;;;-147.17;100.00;-7235.84;4951025;28;52691;-43
2023/05/01 01:12:38;;;;;;;;;18.00;17.00;;;;;-147.17;100.00;-7235.84;4951583;28;51013;-42
2023/05/01 01:15:06;;;;;;;;;19.75;19.00;;;;;-147.17;100.00;-7235.84;4951644;28;51085;-42
2023/05/01 01:17:46;;;;;;;;;17.33;17.33;;;;;-147.17;100.00;-7235.84;4951681;28;51392;-42
2023/05/01 01:20:11;;;;;;;;;20.00;19.25;;;;;-147.17;100.00;-7235.84;4951311;28;52109;-42
2023/05/01 01:22:40;;;;;;;;;15.25;12.75;;;;;-147.17;100.00;-7235.84;4951138;28;51002;-42
2023/05/01 01:25:20;;;;;;;;;19.00;18.25;;;;;-147.17;100.00;-7235.84;4951622;28;50851;-42
2023/05/01 01:28:07;;;;;;;;;18.25;17.25;;;;;-147.17;100.00;-7235.84;4951712;28;51066;-42
2023/05/01 01:30:44;;;;;;;;;17.00;16.50;;;;;-147.17;100.00;-7235.84;4945884;28;51826;-41
2023/05/01 01:33:30;;;;;;;;;19.25;18.25;;;;;-147.17;100.00;-7235.84;4951052;28;50951;-42
2023/05/01 01:36:17;;;;;;;;;18.75;18.75;;;;;-147.17;100.00;-7235.84;4935855;28;51009;-42
2023/05/01 01:38:45;;;;;;;;;17.25;16.75;;;;;-147.17;100.00;-7235.84;4954606;28;50935;-41
2023/05/01 01:41:16;;;;;;;;;18.00;18.00;;;;;-147.17;100.00;-7235.84;4954328;28;52209;-41
2023/05/01 01:43:46;;;;;;;;;17.33;16.33;;;;;-147.17;100.00;-7235.84;4954589;28;51049;-42
2023/05/01 01:46:16;;;;;;;;;20.00;19.25;;;;;-147.17;100.00;-7235.84;4937010;28;50955;-42
2023/05/01 01:48:45;;;;;;;;;18.50;16.25;;;;;-147.17;100.00;-7484.09;4954618;28;50974;-42
2023/05/01 01:51:17;;;;;;;;;20.00;18.00;;;;;-147.17;100.00;-7484.09;4954446;28;51028;-42
2023/05/01 01:53:47;;;;;;;;;19.00;18.00;;;;;-147.17;100.00;-7484.09;4936560;28;51197;-42
2023/05/01 01:56:14;;;;;;;;;17.25;15.75;;;;;-147.17;100.00;-7484.09;4937113;28;51132;-42
2023/05/01 01:58:41;;;;;;;;;18.00;18.00;;;;;-147.17;100.00;-7484.09;4954558;28;51228;-42
2023/05/01 02:01:07;;;;;;;;;19.25;19.00;;;;;-147.17;100.00;-7484.09;4954381;28;51832;-42
2023/05/01 02:03:34;;;;;;;;;12.00;12.00;;;;;-147.17;100.00;-7484.09;4954190;28;51039;-43
2023/05/01 02:06:00;;;;;;;;;16.25;16.25;;;;;-147.17;100.00;-7484.09;4954463;28;51057;-42
2023/05/01 02:08:29;;;;;;;;;19.67;17.67;;;;;-147.17;100.00;-7484.09;4954223;28;51394;-43
2023/05/01 02:10:58;;;;;;;;;17.50;17.50;;;;;-147.17;100.00;-7484.09;4953884;28;50910;-42
2023/05/01 02:13:30;;;;;;;;;16.00;16.00;;;;;-147.17;100.00;-7484.09;4953897;28;51178;-42
2023/05/01 02:15:57;;;;;;;;;18.67;18.67;;;;;-147.17;100.00;-7484.09;4953947;28;51014;-42
2023/05/01 02:18:25;;;;;;;;;17.00;17.00;;;;;-147.17;100.00;-7484.09;4954465;28;51386;-42
2023/05/01 02:20:52;;;;;;;;;16.00;15.33;;;;;-147.17;100.00;-7484.09;4950690;28;51037;-43
2023/05/01 02:23:17;;;;;;;;;14.33;14.33;;;;;-147.17;100.00;-7484.09;4953420;28;50992;-42
2023/05/01 02:25:44;;;;;;;;;16.75;16.50;;;;;-147.17;100.00;-7484.09;4954231;28;50809;-42
2023/05/01 02:28:15;;;;;;;;;16.67;16.33;;;;;-147.17;100.00;-7732.34;4954511;28;51216;-42
2023/05/01 02:30:40;;;;;;;;;15.00;15.00;;;;;-147.17;100.00;-7484.09;4953747;28;51022;-42
2023/05/01 02:33:07;;;;;;;;;21.50;20.50;;;;;-147.17;100.00;-7484.09;4954013;28;51145;-42
2023/05/01 02:35:41;;;;;;;;;17.25;16.50;;;;;-147.17;100.00;-7484.09;4953875;28;50937;-42
2023/05/01 02:38:07;;;;;;;;;16.75;15.75;;;;;-147.17;100.00;-7484.09;4953654;28;51236;-42
2023/05/01 02:40:35;;;;;;;;;16.67;16.67;;;;;-147.17;100.00;-7484.09;4953593;28;51256;-42
2023/05/01 02:43:05;;;;;;;;;20.25;18.25;;;;;-147.17;100.00;-7484.09;4953848;28;51002;-42
2023/05/01 02:45:34;;;;;;;;;17.25;16.50;;;;;-147.17;100.00;-7484.09;4953480;28;51138;-42
2023/05/01 02:48:02;;;;;;;;;18.67;17.33;;;;;-147.17;100.00;-7732.34;4953884;28;50879;-42
2023/05/01 02:50:28;;;;;;;;;16.67;15.67;;;;;-147.17;100.00;-7732.34;4935736;28;53112;-43
2023/05/01 02:52:54;;;;;;;;;16.50;16.50;;;;;-147.17;100.00;-7732.34;4953595;28;50954;-41
2023/05/01 02:55:19;;;;;;;;;16.00;15.33;;;;;-147.17;100.00;-7732.34;4953392;28;51214;-40
2023/05/01 02:57:45;;;;;;;;;17.33;16.33;;;;;-147.17;100.00;-7732.34;4954077;28;51164;-41
2023/05/01 03:00:12;;;;;;;;;16.50;15.50;;;;;-147.17;100.00;-7732.34;4953592;28;51123;-42
2023/05/01 03:02:39;;;;;;;;;17.50;17.50;;;;;-147.17;100.00;-7732.34;4953723;28;50924;-40
2023/05/01 03:05:05;;;;;;;;;17.25;17.25;;;;;-147.17;100.00;-7732.34;4953187;28;50906;-40
2023/05/01 03:07:33;;;;;;;;;16.50;15.25;;;;;-147.17;100.00;-7980.59;4936160;28;51308;-41
2023/05/01 03:10:03;;;;;;;;;15.50;14.25;;;;;-147.17;100.00;-7732.34;4953342;28;52841;-40
2023/05/01 03:12:29;;;;;;;;;16.25;15.75;;;;;-147.17;100.00;-7732.34;4953207;28;51191;-41
2023/05/01 03:14:54;;;;;;;;;17.75;17.25;;;;;-147.17;100.00;-7732.34;4953619;28;50861;-40
2023/05/01 03:17:19;;;;;;;;;15.25;15.25;;;;;-147.17;100.00;-7732.34;4953262;28;50959;-42
2023/05/01 03:19:45;;;;;;;;;17.00;16.25;;;;;-147.17;100.00;-7732.34;4953279;28;50950;-41
2023/05/01 03:22:10;;;;;;;;;17.25;16.75;;;;;-147.17;100.00;-7732.34;4953095;28;50928;-41
2023/05/01 03:24:36;;;;;;;;;13.67;12.67;;;;;-147.17;100.00;-7732.34;4953140;28;50912;-40
2023/05/01 03:27:01;;;;;;;;;15.75;15.00;;;;;-147.17;100.00;-7732.34;4953532;28;51098;-40
2023/05/01 03:29:26;;;;;;;;;15.67;14.67;;;;;-147.17;100.00;-7732.34;4947315;28;63107;-40
2023/05/01 03:31:52;;;;;;;;;18.75;17.50;;;;;-147.17;100.00;-7732.34;4953136;28;50989;-42
2023/05/01 03:34:17;;;;;;;;;13.00;12.75;;;;;-147.17;100.00;-7732.34;4953086;28;51159;-41
2023/05/01 03:36:42;;;;;;;;;16.25;15.25;;;;;-147.17;100.00;-7732.34;4953110;28;51148;-40
2023/05/01 03:39:08;;;;;;;;;17.00;15.75;;;;;-147.17;100.00;-7732.34;4952677;28;51180;-41
2023/05/01 03:41:33;;;;;;;;;16.50;16.00;;;;;-147.17;100.00;-7732.34;4935747;28;51122;-40
2023/05/01 03:43:58;;;;;;;;;19.25;18.25;;;;;-147.17;100.00;-7732.34;4953084;28;51188;-40
2023/05/01 03:46:24;;;;;;;;;15.25;15.25;;;;;-147.17;100.00;-7732.34;4953416;28;51142;-40
2023/05/01 03:48:49;;;;;;;;;15.25;15.25;;;;;-147.17;100.00;-7732.34;4952983;28;51602;-40
2023/05/01 03:51:16;;;;;;;;;14.25;14.25;;;;;-147.17;100.00;-7732.34;4952916;28;51065;-40
2023/05/01 03:53:41;;;;;;;;;15.75;15.25;;;;;-147.17;100.00;-7732.34;4952540;28;51050;-41
2023/05/01 03:56:08;;;;;;;;;16.33;15.33;;;;;-147.17;100.00;-7732.34;4952763;28;51178;-40
2023/05/01 03:58:33;;;;;;;;;15.67;14.67;;;;;-147.17;100.00;-7980.59;4951957;28;51130;-42
2023/05/01 04:00:59;;;;;;;;;15.00;14.67;;;;;-147.17;100.00;-7980.59;4952585;28;51099;-41
2023/05/01 04:03:25;;;;;;;;;14.33;13.67;;;;;-147.17;100.00;-7732.34;4952978;28;50983;-41
2023/05/01 04:05:51;;;;;;;;;11.25;11.00;;;;;-147.17;100.00;-7732.34;4952790;28;51367;-40
2023/05/01 04:08:17;;;;;;;;;17.00;16.00;;;;;-147.17;100.00;-7732.34;4952184;28;52676;-40
2023/05/01 04:10:42;;;;;;;;;16.25;15.50;;;;;-147.17;100.00;-7732.34;4952560;28;51062;-41
2023/05/01 04:13:07;;;;;;;;;15.75;13.75;;;;;-147.17;100.00;-7980.59;4952489;28;51059;-40
2023/05/01 04:15:33;;;;;;;;;13.33;13.00;;;;;-147.17;100.00;-7732.34;4952574;28;51058;-40
2023/05/01 04:17:58;;;;;;;;;21.67;18.00;;;;;-147.17;100.00;-7732.34;4952175;28;51935;-40
2023/05/01 04:20:24;;;;;;;;;17.00;16.50;;;;;-147.17;100.00;-7732.34;4952474;28;51095;-41
2023/05/01 04:22:49;;;;;;;;;16.67;15.00;;;;;-147.17;100.00;-7980.59;4948623;28;51563;-40
2023/05/01 04:25:14;;;;;;;;;15.75;15.75;;;;;-147.17;100.00;-7980.59;4952533;28;51110;-41
2023/05/01 04:27:40;;;;;;;;;14.50;14.25;;;;;-147.17;100.00;-7980.59;4951901;28;51910;-40
2023/05/01 04:30:06;;;;;;;;;18.25;18.00;;;;;-147.17;100.00;-7980.59;4952288;28;50990;-41
2023/05/01 04:32:31;;;;;;;;;17.00;15.50;;;;;-147.17;100.00;-7980.59;4952476;28;51131;-40
2023/05/01 04:34:57;;;;;;;;;16.50;16.50;;;;;-147.17;100.00;-7980.59;4952581;28;50908;-40
2023/05/01 04:37:22;;;;;;;;;15.00;15.00;;;;;-147.17;100.00;-7980.59;4951636;28;51280;-42
2023/05/01 04:39:48;;;;;;;;;13.75;13.50;;;;;-147.17;100.00;-7732.34;4951943;28;50896;-42
2023/05/01 04:42:13;;;;;;;;;13.75;13.50;;;;;-147.17;100.00;-7732.34;4951916;28;51082;-42
2023/05/01 04:44:38;;;;;;;;;14.50;14.50;;;;;-147.17;100.00;-7732.34;4952265;28;51254;-41
2023/05/01 04:47:04;;;;;;;;;17.00;16.00;;;;;-147.17;100.00;-7732.34;4951108;28;71300;-42
2023/05/01 04:49:29;;;;;;;;;19.25;18.00;;;;;-147.17;100.00;-7732.34;4951963;28;51016;-42
2023/05/01 04:51:55;;;;;;;;;17.25;15.50;;;;;-147.17;100.00;-7732.34;4951904;28;50901;-43
2023/05/01 04:54:21;;;;;;;;;15.00;15.00;;;;;-147.17;100.00;-7732.34;4951762;28;51215;-42
2023/05/01 04:56:46;;;;;;;;;17.50;17.50;;;;;-147.17;100.00;-7980.59;4951387;28;51345;-42
2023/05/01 04:59:12;;;;;;;;;17.00;17.00;;;;;-147.17;100.00;-7980.59;4951946;28;54627;-42
2023/05/01 05:01:37;;;;;;;;;17.50;17.25;;;;;-147.17;100.00;-7980.59;4952139;28;51002;-42
2023/05/01 05:04:02;;;;;;;;;15.00;15.00;;;;;-147.17;100.00;-7980.59;4952566;28;51204;-42
2023/05/01 05:06:28;;;;;;;;;17.25;16.75;;;;;-147.17;100.00;-7980.59;4951612;28;51827;-42
2023/05/01 05:08:54;;;;;;;;;19.25;18.25;;;;;-147.17;100.00;-7980.59;4951608;28;51039;-42
2023/05/01 05:11:20;;;;;;;;;17.00;14.33;;;;;-147.17;100.00;-7980.59;4954902;28;51116;-42
2023/05/01 05:13:45;;;;;;;;;15.75;15.75;;;;;-147.17;100.00;-7980.59;4955479;28;51237;-42
2023/05/01 05:16:11;;;;;;;;;15.33;15.33;;;;;-147.17;100.00;-7980.59;4954973;28;51801;-42
2023/05/01 05:18:37;;;;;;;;;16.00;16.00;;;;;-147.17;100.00;-7980.59;4955354;28;51237;-41
2023/05/01 05:21:09;;;;;;;;;18.75;17.75;;;;;-147.17;100.00;-7980.59;4955101;28;51177;-42
2023/05/01 05:23:35;;;;;;;;;16.50;16.00;;;;;-147.17;100.00;-7980.59;4955424;28;51348;-42
2023/05/01 05:26:02;;;;;;;;;18.00;16.50;;;;;-147.17;100.00;-8228.81;4954745;28;53210;-42
2023/05/01 05:28:28;;;;;;;;;17.67;16.33;;;;;-147.17;100.00;-8228.81;4951500;28;50939;-42
2023/05/01 05:30:54;;;;;;;;;16.50;15.25;;;;;-147.17;100.00;-8477.03;4953249;28;51107;-42
2023/05/01 05:33:20;;;;;;;;;17.50;17.25;;;;;-147.17;100.00;-8477.03;4954887;28;51122;-42
2023/05/01 05:35:45;;;;;;;;;20.25;18.75;;;;;-147.17;100.00;-8477.03;4954229;28;51604;-42
2023/05/01 05:38:10;;;;;;;;;17.25;16.25;;;;;-147.17;100.00;-8477.03;4954528;28;50924;-42
2023/05/01 05:40:36;;;;;;;;;15.25;15.00;;;;;-147.17;100.00;-8477.03;4954466;28;51085;-42
2023/05/01 05:43:01;;;;;;;;;19.25;17.75;;;;;-147.17;100.00;-8477.03;4954863;28;50888;-46
2023/05/01 05:45:28;;;;;;;;;13.25;12.75;;;;;-147.17;100.00;-8477.03;4954409;28;51037;-42
2023/05/01 05:47:53;;;;;;;;;17.25;15.25;;;;;-147.17;100.00;-8477.03;4954608;28;51037;-42
2023/05/01 05:50:18;;;;;;;;;16.33;16.33;;;;;-147.17;100.00;-8477.03;4954425;28;51619;-42
2023/05/01 05:52:44;;;;;;;;;20.00;18.75;;;;;-147.17;100.00;-8477.03;4954255;28;51251;-42
2023/05/01 05:55:09;;;;;;;;;17.00;15.75;;;;;-147.17;100.00;-8477.03;4953954;28;51025;-42
2023/05/01 05:57:36;;;;;;;;;16.75;16.75;;;;;-147.17;100.00;-8477.03;4954138;28;51226;-42
2023/05/01 06:00:04;;;;;;;;;16.67;16.33;;;;;-147.17;100.00;-8477.03;4954096;28;51029;-44
2023/05/01 06:02:30;;;;;;;;;16.50;16.00;;;;;-147.17;100.00;-8477.03;4950275;28;54140;-42
2023/05/01 06:04:55;;;;;;;;;18.33;17.67;;;;;-147.17;100.00;-8477.03;4953839;28;51085;-42
2023/05/01 06:07:21;;;;;;;;;17.67;16.67;;;;;-147.17;100.00;-8477.03;4952894;28;51100;-42
2023/05/01 06:09:47;;;;;;;;;15.50;15.50;;;;;-147.17;100.00;-8477.03;4954078;28;51047;-42
2023/05/01 06:12:12;;;;;;;;;14.33;14.33;;;;;-147.17;100.00;-8725.22;4953685;28;51044;-42
2023/05/01 06:14:37;;;;;;;;;18.00;16.25;;;;;-147.17;100.00;-8477.03;4935588;28;65694;-42
2023/05/01 06:17:02;;;;;;;;;16.75;16.25;;;;;-147.17;100.00;-8725.22;4954315;28;50970;-44
2023/05/01 06:19:28;;;;;;;;;16.67;15.00;;;;;-147.17;100.00;-8725.22;4954048;28;51060;-42
2023/05/01 06:21:53;;;;;;;;;18.50;18.50;;;;;-147.17;100.00;-8725.22;4953966;28;50891;-44
2023/05/01 06:24:18;;;;;;;;;19.00;18.00;;;;;-147.17;100.00;-8725.22;4953650;28;50995;-42
2023/05/01 06:26:44;;;;;;;;;17.67;17.00;;;;;-147.17;100.00;-8725.22;4953655;28;63851;-42
2023/05/01 06:29:09;;;;;;;;;16.75;15.50;;;;;-147.17;100.00;-8725.22;4954099;28;51053;-42
2023/05/01 06:31:34;;;;;;;;;16.00;15.00;;;;;-147.17;100.00;-8973.38;4954206;28;51267;-42
2023/05/01 06:34:00;;;;;;;;;16.50;16.50;;;;;-147.17;100.00;-8725.22;4953688;28;51144;-43
2023/05/01 06:36:25;;;;;;;;;22.25;17.25;;;;;-147.17;100.00;-8973.38;4953745;28;50994;-42
2023/05/01 06:38:50;;;;;;;;;17.00;16.00;;;;;-147.17;100.00;-8725.22;4953554;28;51037;-42
2023/05/01 06:41:16;;;;;;;;;17.75;15.50;;;;;-147.17;100.00;-8725.22;4953763;28;51074;-42
2023/05/01 06:43:41;;;;;;;;;17.00;16.50;;;;;-147.17;100.00;-8973.38;4936004;28;52658;-42
2023/05/01 06:46:06;;;;;;;;;18.50;18.00;;;;;-147.17;100.00;-9221.53;4954252;28;51027;-42
2023/05/01 06:48:32;;;;;;;;;18.00;17.25;;;;;-147.17;100.00;-9221.53;4953715;28;51236;-42
2023/05/01 06:50:57;;;;;;;;;16.00;16.00;;;;;-147.17;100.00;-9221.53;4954191;28;51073;-42
2023/05/01 06:53:22;;;;;;;;;17.75;17.00;;;;;-147.17;100.00;-9469.69;4952800;28;67792;-43
2023/05/01 06:55:47;;;;;;;;;15.50;15.00;;;;;-147.17;100.00;-9469.69;4936161;28;51071;-42
2023/05/01 06:58:13;;;;;;;;;15.00;14.75;;;;;-147.17;100.00;-9717.81;4953153;28;58116;-42
2023/05/01 07:00:38;;;;;;;;;16.00;14.75;;;;;-147.17;100.00;-9717.81;4953544;28;53273;-42
2023/05/01 07:03:03;;;;;;;;;15.00;15.00;;;;;-147.17;100.00;-9717.81;4953321;28;51779;-42
2023/05/01 07:05:29;;;;;;;;;16.67;15.00;;;;;-147.17;100.00;-9469.69;4953076;28;50999;-42
2023/05/01 07:07:54;;;;;;;;;14.00;14.00;;;;;-147.17;100.00;-9469.69;4953385;28;51115;-42
2023/05/01 07:10:20;;;;;;;;;13.00;13.00;;;;;-147.17;100.00;-9221.53;4953807;28;51235;-43
2023/05/01 07:12:45;;;;;;;;;17.67;17.67;;;;;-147.17;100.00;-9221.53;4953250;28;52033;-42
2023/05/01 07:15:13;;;;;;;;;8.67;8.00;;;;;-147.17;100.00;-9221.53;4935902;28;51000;-42
2023/05/01 07:17:38;;;;;;;;;16.25;15.25;;;;;-147.17;100.00;-8973.38;4952733;28;50887;-42
2023/05/01 07:20:04;;;;;;;;;16.00;15.00;;;;;-147.17;100.00;-8973.38;4953628;28;51000;-42
2023/05/01 07:22:29;;;;;;;;;17.00;16.00;;;;;-147.17;100.00;-8973.38;4935295;28;51684;-42
2023/05/01 07:24:55;;;;;;;;;14.00;14.00;;;;;-147.17;100.00;-8725.22;4952910;28;59633;-40
2023/05/01 07:27:20;;;;;;;;;17.00;16.00;;;;;-147.17;100.00;-8725.22;4953184;28;51382;-42
2023/05/01 07:29:45;;;;;;;;;17.00;15.00;;;;;-147.17;100.00;-8725.22;4949078;28;51461;-42
2023/05/01 07:32:11;;;;;;;;;19.67;18.67;;;;;-147.17;100.00;-8725.22;4951975;28;51878;-42
2023/05/01 07:34:36;;;;;;;;;14.67;14.00;;;;;-147.17;100.00;-8477.03;4953154;28;51008;-42
2023/05/01 07:37:03;;;;;;;;;17.50;14.75;;;;;-147.17;100.00;-8477.03;4953084;28;51161;-42
2023/05/01 07:39:29;;;;;;;;;14.67;14.67;;;;;-147.17;100.00;-8477.03;4952973;28;50825;-42
2023/05/01 07:41:56;;;;;;;;;14.33;14.00;;;;;-147.17;100.00;-8477.03;4952591;28;51798;-42
2023/05/01 07:44:21;;;;;;;;;15.00;15.00;;;;;-147.17;100.00;-8228.81;4953149;28;50964;-42
2023/05/01 07:46:46;;;;;;;;;14.25;14.25;;;;;-147.17;100.00;-7980.59;4935211;28;51081;-42
2023/05/01 07:49:12;;;;;;;;;16.33;14.67;;;;;-147.17;100.00;-7980.59;4953175;28;51089;-42
2023/05/01 07:51:37;;;;;;;;;14.33;14.00;;;;;-147.17;100.00;-7732.34;4952477;28;51709;-41
2023/05/01 07:54:03;;;;;;;;;14.75;14.50;;;;;-147.17;100.00;-7732.34;4952223;28;53479;-42
2023/05/01 07:56:30;;;;;;;;;15.33;13.33;;;;;-147.17;100.00;-7484.09;4952553;28;51132;-42
2023/05/01 07:58:55;;;;;;;;;13.33;13.33;;;;;-147.17;100.00;-7484.09;4952797;28;51037;-41
2023/05/01 08:01:20;;;;;;;;;14.33;13.33;;;;;-147.17;100.00;-7484.09;4952334;28;51193;-41
2023/05/01 08:03:46;;;;;;;;;13.67;13.67;;;;;-147.17;100.00;-7235.84;4952514;28;51092;-42
2023/05/01 08:06:11;;;;;;;;;15.00;15.00;;;;;-147.17;100.00;-7235.84;4952551;28;50927;-41
2023/05/01 08:08:36;;;;;;;;;15.67;14.67;;;;;-147.17;100.00;-6987.56;4952789;28;51414;-41
2023/05/01 08:11:02;;;;;;;;;15.00;14.33;;;;;-147.17;100.00;-6987.56;4952368;28;54098;-41
2023/05/01 08:13:27;;;;;;;;;15.33;14.67;;;;;-147.17;100.00;-6987.56;4948412;28;51038;-42
2023/05/01 08:15:52;;;;;;;;;12.00;12.00;;;;;-147.17;100.00;-6987.56;4952385;28;51142;-42
2023/05/01 08:18:21;;;;;;;;;15.33;14.33;;;;;-147.17;100.00;-6987.56;4952692;28;50947;-41
2023/05/01 08:20:47;;;;;;;;;14.00;13.67;;;;;-147.17;100.00;-7235.84;4952343;28;51361;-42
2023/05/01 08:23:13;;;;;;;;;13.00;13.00;;;;;-147.17;100.00;-7235.84;4952323;28;51011;-42
2023/05/01 08:25:39;;;;;;;;;15.00;14.33;;;;;-147.17;100.00;-6987.56;4952330;28;51069;-41
2023/05/01 08:28:04;;;;;;;;;13.00;13.00;;;;;-147.17;100.00;-6987.56;4952623;28;51192;-41
2023/05/01 08:30:30;;;;;;;;;13.33;13.33;;;;;-147.17;100.00;-6987.56;4952008;28;51081;-42
2023/05/01 08:32:56;;;;;;;;;14.00;13.33;;;;;-147.17;100.00;-6987.56;4952224;28;50974;-42
2023/05/01 08:35:21;;;;;;;;;17.33;16.33;;;;;-147.17;100.00;-6987.56;4952046;28;50938;-42
2023/05/01 08:37:46;;;;;;;;;15.67;15.67;;;;;-147.17;100.00;-6987.56;4952283;28;51224;-42
2023/05/01 08:40:13;;;;;;;;;16.00;16.00;;;;;-147.17;100.00;-6987.56;4951464;28;62910;-41
2023/05/01 08:42:39;;;;;;;;;15.67;14.67;;;;;-147.17;100.00;-6987.56;4952103;28;51286;-41
2023/05/01 08:45:07;;;;;;;;;13.33;13.00;;;;;-147.17;100.00;-6987.56;4934044;28;51150;-42
2023/05/01 08:47:36;;;;;;;;;12.67;12.00;;;;;-147.17;100.00;-6987.56;4952380;28;51285;-42
2023/05/01 08:50:03;;;;;;;;;13.00;13.00;;;;;-147.17;100.00;-6987.56;4951647;28;52817;-42
2023/05/01 08:52:30;;;;;;;;;13.00;12.00;;;;;-147.17;100.00;-6987.56;4951953;28;51013;-42
2023/05/01 08:54:56;;;;;;;;;15.33;13.67;;;;;-147.17;100.00;-6987.56;4952007;28;50926;-42
2023/05/01 08:57:23;;;;;;;;;13.67;12.67;;;;;-147.17;100.00;-6987.56;4952244;28;51368;-42
2023/05/01 08:59:49;;;;;;;;;14.00;14.00;;;;;-147.17;100.00;-6987.56;4951853;28;51904;-42
2023/05/01 09:02:16;;;;;;;;;14.33;14.00;;;;;-147.17;100.00;-6987.56;4952065;28;50906;-42
2023/05/01 09:04:41;;;;;;;;;13.25;13.25;;;;;-147.17;100.00;-6987.56;4951801;28;51081;-42
2023/05/01 09:07:08;;;;;;;;;12.33;12.00;;;;;-147.17;100.00;-6987.56;4951745;28;51239;-41
2023/05/01 09:09:33;;;;;;;;;13.67;13.00;;;;;-147.17;100.00;-6987.56;4951265;28;52807;-42
2023/05/01 09:12:09;;;;;;;;;13.00;12.67;;;;;-147.17;100.00;-6987.56;4951812;28;51002;-42
2023/05/01 09:14:36;;;;;;;;;11.33;10.33;;;;;-147.17;100.00;-6987.56;4951465;28;50993;-42
2023/05/01 09:17:02;;;;;;;;;14.00;12.00;;;;;-147.17;100.00;-6987.56;4952141;28;50827;-40
2023/05/01 09:19:27;;;;;;;;;11.00;10.33;;;;;-147.17;100.00;-6987.56;4951371;28;51061;-42
2023/05/01 09:21:54;;;;;;;;;12.33;12.33;;;;;-147.17;100.00;-6987.56;4952028;28;51111;-42
2023/05/01 09:24:23;;;;;;;;;12.00;12.00;;;;;-147.17;100.00;-6987.56;4951513;28;51113;-42
2023/05/01 09:26:48;;;;;;;;;12.67;11.67;;;;;-147.17;100.00;-6987.56;4934151;28;51127;-42
2023/05/01 09:29:36;;;;;;;;;10.00;9.33;;;;;-147.17;100.00;-6987.56;4948162;28;51910;-42
2023/05/01 09:32:20;;;;;;;;;10.33;10.00;;;;;-147.17;100.00;-6987.56;4951659;28;51037;-42
2023/05/01 09:34:47;;;;;;;;;11.00;11.00;;;;;-147.17;100.00;-6987.56;4934411;28;52158;-42
2023/05/01 09:37:30;;;;;;;;;13.67;13.33;;;;;-147.17;100.00;-6987.56;4951076;28;51000;-43
2023/05/01 09:40:09;;;;;;;;;11.33;10.33;;;;;-147.17;100.00;-6987.56;4951282;28;52100;-40
2023/05/01 09:42:36;;;;;;;;;11.00;11.00;;;;;-147.17;100.00;-6987.56;4951202;28;51004;-43
2023/05/01 09:45:04;;;;;;;;;13.00;12.33;;;;;-147.17;100.00;-7235.84;4951204;28;51055;-41
2023/05/01 09:47:29;;;;;;;;;9.67;9.67;;;;;-147.17;100.00;-7235.84;4951383;28;51168;-40
2023/05/01 09:49:58;;;;;;;;;11.00;10.67;;;;;-147.17;100.00;-7235.84;4951009;28;51931;-40
2023/05/01 09:52:27;;;;;;;;;11.00;11.00;;;;;-147.17;100.00;-7235.84;4951208;28;51045;-41
2023/05/01 09:55:12;;;;;;;;;9.33;8.67;;;;;-147.17;100.00;-7484.09;4951045;28;51068;-40
2023/05/01 09:57:37;;;;;;;;;13.00;12.33;;;;;-147.17;100.00;-7484.09;4954561;28;51200;-45
2023/05/01 10:00:07;;;;;;;;;11.00;11.00;;;;;-147.17;100.00;-7484.09;4953569;28;63779;-42
2023/05/01 10:02:33;;;;;;;;;10.00;10.00;;;;;-147.17;100.00;-7484.09;4954264;28;51118;-40
2023/05/01 10:04:59;;;;;;;;;12.00;11.67;;;;;-147.17;100.00;-7732.34;4954280;28;50979;-40
2023/05/01 10:07:25;;;;;;;;;10.00;9.67;;;;;-147.17;100.00;-7732.34;4954167;28;51196;-40
2023/05/01 10:09:50;;;;;;;;;11.00;11.00;;;;;-147.17;100.00;-7732.34;4954069;28;51030;-41
2023/05/01 10:12:24;;;;;;;;;13.33;13.33;;;;;-147.17;100.00;-7732.34;4951420;28;56501;-42
2023/05/01 10:14:53;;;;;;;;;13.00;12.33;;;;;-147.17;100.00;-7732.34;4953472;28;50999;-40
2023/05/01 10:17:19;;;;;;;;;11.33;10.67;;;;;-147.17;100.00;-7732.34;4954167;28;51282;-42
2023/05/01 10:19:46;;;;;;;;;12.00;11.00;;;;;-147.17;100.00;-7732.34;4954077;28;51868;-42
2023/05/01 10:22:11;;;;;;;;;9.00;9.00;;;;;-147.17;100.00;-7732.34;4953821;28;51044;-42
2023/05/01 10:24:38;;;;;;;;;9.67;9.00;;;;;-147.17;100.00;-7484.09;4954522;28;50891;-42
2023/05/01 10:27:06;;;;;;;;;11.00;11.00;;;;;-147.17;100.00;-7732.34;4954229;28;51144;-40
2023/05/01 10:29:35;;;;;;;;;9.00;9.00;;;;;-147.17;100.00;-7732.34;4953792;28;51910;-42
2023/05/01 10:32:03;;;;;;;;;12.33;11.00;;;;;-147.17;100.00;-7732.34;4953942;28;50929;-41
2023/05/01 10:34:31;;;;;;;;;12.00;11.67;;;;;-147.17;100.00;-7980.59;4953889;28;51158;-43
2023/05/01 10:37:01;;;;;;;;;12.67;12.00;;;;;-147.17;100.00;-7980.59;4936463;28;51021;-43
2023/05/01 10:39:35;;;;;;;;;10.00;9.33;;;;;-147.17;100.00;-8228.81;4953393;28;51024;-41
2023/05/01 10:42:13;;;;;;;;;10.00;10.00;;;;;-147.17;100.00;-8228.81;4953363;28;51011;-42
2023/05/01 10:44:39;;;;;;;;;10.00;9.00;;;;;-147.17;100.00;-8228.81;4953685;28;51056;-42
2023/05/01 10:47:41;;;;;;;;;9.00;9.00;;;;;-147.17;100.00;-7980.59;4953609;28;50899;-42
2023/05/01 10:50:11;;;;;;;;;11.00;11.00;;;;;-147.17;100.00;-8228.81;4953156;28;51769;-42
2023/05/01 10:53:11;;;;;;;;;10.33;10.33;;;;;-147.17;100.00;-7980.59;4953514;28;51013;-42
2023/05/01 10:55:38;;;;;;;;;10.67;10.00;;;;;-147.17;100.00;-8228.81;4953484;28;51260;-42